sensor_id;sensor_type;location;lat;lon;timestamp;temperature;humidity
39103;DHT22;24847;48.218;16.414;2023-01-28T00:04:17;-1.00;99.90
39103;DHT22;24847;48.218;16.414;2023-01-28T00:09:23;-1.00;99.90
39103;DHT22;24847;48.218;16.414;2023-01-28T00:14:25;-1.00;99.90
39103;DHT22;24847;48.218;16.414;2023-01-28T00:19:28;-1.10;99.90
39103;DHT22;24847;48.218;16.414;2023-01-28T00:24:31;-1.00;99.90
39103;DHT22;24847;48.218;16.414;2023-01-28T00:29:34;-1.10;99.90
39103;DHT22;24847;48.218;16.414;2023-01-28T00:34:36;-1.00;99.90
39103;DHT22;24847;48.218;16.414;2023-01-28T00:39:39;-1.10;99.90
39103;DHT22;24847;48.218;16.414;2023-01-28T00:44:42;-1.10;99.90
39103;DHT22;24847;48.218;16.414;2023-01-28T00:49:46;-1.20;99.90
39103;DHT22;24847;48.218;16.414;2023-01-28T00:54:49;-1.10;99.90
39103;DHT22;24847;48.218;16.414;2023-01-28T00:59:52;-1.00;99.90
39103;DHT22;24847;48.218;16.414;2023-01-28T01:04:54;-1.10;99.90
39103;DHT22;24847;48.218;16.414;2023-01-28T01:10:01;-1.10;99.90
39103;DHT22;24847;48.218;16.414;2023-01-28T01:15:08;-1.10;99.90
39103;DHT22;24847;48.218;16.414;2023-01-28T01:20:14;-1.10;99.90
39103;DHT22;24847;48.218;16.414;2023-01-28T01:25:19;-1.10;99.90
39103;DHT22;24847;48.218;16.414;2023-01-28T01:30:22;-1.10;99.90
39103;DHT22;24847;48.218;16.414;2023-01-28T01:35:25;-1.00;99.90
39103;DHT22;24847;48.218;16.414;2023-01-28T01:40:29;-1.20;99.90
39103;DHT22;24847;48.218;16.414;2023-01-28T01:45:33;-1.10;99.90
39103;DHT22;24847;48.218;16.414;2023-01-28T01:50:38;-1.10;99.90
39103;DHT22;24847;48.218;16.414;2023-01-28T01:55:47;-1.10;99.90
39103;DHT22;24847;48.218;16.414;2023-01-28T02:00:51;-1.20;99.90
39103;DHT22;24847;48.218;16.414;2023-01-28T02:05:53;-1.10;99.90
39103;DHT22;24847;48.218;16.414;2023-01-28T02:11:00;-1.00;99.90
39103;DHT22;24847;48.218;16.414;2023-01-28T02:16:05;-1.00;99.90
39103;DHT22;24847;48.218;16.414;2023-01-28T02:27:16;-1.00;99.90
39103;DHT22;24847;48.218;16.414;2023-01-28T02:32:30;-0.90;99.90
39103;DHT22;24847;48.218;16.414;2023-01-28T02:37:39;-0.90;99.90
39103;DHT22;24847;48.218;16.414;2023-01-28T02:42:45;-1.00;99.90
39103;DHT22;24847;48.218;16.414;2023-01-28T02:47:49;-0.90;99.90
39103;DHT22;24847;48.218;16.414;2023-01-28T02:53:07;-1.10;99.90
39103;DHT22;24847;48.218;16.414;2023-01-28T02:58:36;-1.00;99.90
39103;DHT22;24847;48.218;16.414;2023-01-28T03:03:52;-1.10;99.90
39103;DHT22;24847;48.218;16.414;2023-01-28T03:09:02;-1.10;99.90
39103;DHT22;24847;48.218;16.414;2023-01-28T03:14:25;-1.10;99.90
39103;DHT22;24847;48.218;16.414;2023-01-28T03:19:48;-1.30;99.90
39103;DHT22;24847;48.218;16.414;2023-01-28T03:25:08;-1.20;99.90
39103;DHT22;24847;48.218;16.414;2023-01-28T03:30:44;-1.30;99.90
39103;DHT22;24847;48.218;16.414;2023-01-28T03:36:08;-1.50;99.90
39103;DHT22;24847;48.218;16.414;2023-01-28T03:41:28;-1.50;99.90
39103;DHT22;24847;48.218;16.414;2023-01-28T03:46:31;-1.60;99.90
39103;DHT22;24847;48.218;16.414;2023-01-28T03:51:36;-1.60;99.90
39103;DHT22;24847;48.218;16.414;2023-01-28T03:56:38;-1.60;99.90
39103;DHT22;24847;48.218;16.414;2023-01-28T04:01:40;-1.70;99.90
39103;DHT22;24847;48.218;16.414;2023-01-28T04:06:45;-1.50;99.90
39103;DHT22;24847;48.218;16.414;2023-01-28T04:11:48;-1.60;99.90
39103;DHT22;24847;48.218;16.414;2023-01-28T04:16:51;-1.60;99.90
39103;DHT22;24847;48.218;16.414;2023-01-28T04:21:56;-1.70;99.90
39103;DHT22;24847;48.218;16.414;2023-01-28T04:26:58;-1.50;99.90
39103;DHT22;24847;48.218;16.414;2023-01-28T04:32:00;-1.70;99.90
39103;DHT22;24847;48.218;16.414;2023-01-28T04:37:04;-1.70;99.90
39103;DHT22;24847;48.218;16.414;2023-01-28T04:42:06;-1.60;99.90
39103;DHT22;24847;48.218;16.414;2023-01-28T04:47:08;-1.60;99.90
39103;DHT22;24847;48.218;16.414;2023-01-28T04:52:12;-1.70;99.90
39103;DHT22;24847;48.218;16.414;2023-01-28T04:57:14;-1.70;99.90
39103;DHT22;24847;48.218;16.414;2023-01-28T05:02:17;-1.60;99.90
39103;DHT22;24847;48.218;16.414;2023-01-28T05:07:20;-1.50;99.90
39103;DHT22;24847;48.218;16.414;2023-01-28T05:12:23;-1.50;99.90
39103;DHT22;24847;48.218;16.414;2023-01-28T05:17:25;-1.40;99.90
39103;DHT22;24847;48.218;16.414;2023-01-28T05:22:29;-1.50;99.90
39103;DHT22;24847;48.218;16.414;2023-01-28T05:27:32;-1.60;99.90
39103;DHT22;24847;48.218;16.414;2023-01-28T05:32:34;-1.60;99.90
39103;DHT22;24847;48.218;16.414;2023-01-28T05:37:38;-1.60;99.90
39103;DHT22;24847;48.218;16.414;2023-01-28T05:42:40;-1.50;99.90
39103;DHT22;24847;48.218;16.414;2023-01-28T05:47:43;-1.60;99.90
39103;DHT22;24847;48.218;16.414;2023-01-28T05:52:46;-1.50;99.90
39103;DHT22;24847;48.218;16.414;2023-01-28T05:57:49;-1.40;99.90
39103;DHT22;24847;48.218;16.414;2023-01-28T06:02:51;-1.50;99.90
39103;DHT22;24847;48.218;16.414;2023-01-28T06:07:55;-1.50;99.90
39103;DHT22;24847;48.218;16.414;2023-01-28T06:12:57;-1.40;99.90
39103;DHT22;24847;48.218;16.414;2023-01-28T06:18:00;-1.30;99.90
39103;DHT22;24847;48.218;16.414;2023-01-28T06:23:03;-1.20;99.90
39103;DHT22;24847;48.218;16.414;2023-01-28T06:28:06;-1.20;99.90
39103;DHT22;24847;48.218;16.414;2023-01-28T06:33:08;-1.20;99.90
39103;DHT22;24847;48.218;16.414;2023-01-28T06:38:12;-1.20;99.90
39103;DHT22;24847;48.218;16.414;2023-01-28T06:43:14;-1.10;99.90
39103;DHT22;24847;48.218;16.414;2023-01-28T06:48:17;-1.10;99.90
39103;DHT22;24847;48.218;16.414;2023-01-28T06:53:21;-1.00;99.90
39103;DHT22;24847;48.218;16.414;2023-01-28T06:58:23;-1.00;99.90
39103;DHT22;24847;48.218;16.414;2023-01-28T07:03:25;-1.00;99.90
39103;DHT22;24847;48.218;16.414;2023-01-28T07:08:29;-1.00;99.90
39103;DHT22;24847;48.218;16.414;2023-01-28T07:13:31;-1.00;99.90
39103;DHT22;24847;48.218;16.414;2023-01-28T07:18:34;-1.10;99.90
39103;DHT22;24847;48.218;16.414;2023-01-28T07:23:37;-1.10;99.90
39103;DHT22;24847;48.218;16.414;2023-01-28T07:28:42;-1.10;99.90
39103;DHT22;24847;48.218;16.414;2023-01-28T07:33:44;-0.90;99.90
39103;DHT22;24847;48.218;16.414;2023-01-28T07:38:48;-1.00;99.90
39103;DHT22;24847;48.218;16.414;2023-01-28T07:43:50;-0.90;99.90
39103;DHT22;24847;48.218;16.414;2023-01-28T07:48:53;-0.80;99.90
39103;DHT22;24847;48.218;16.414;2023-01-28T07:53:57;-0.90;99.90
39103;DHT22;24847;48.218;16.414;2023-01-28T07:58:59;-0.90;99.90
39103;DHT22;24847;48.218;16.414;2023-01-28T08:04:02;-0.90;99.90
39103;DHT22;24847;48.218;16.414;2023-01-28T08:09:06;-0.80;99.90
39103;DHT22;24847;48.218;16.414;2023-01-28T08:14:09;-0.90;99.90
39103;DHT22;24847;48.218;16.414;2023-01-28T08:19:11;-0.90;99.90
39103;DHT22;24847;48.218;16.414;2023-01-28T08:24:15;-0.80;99.90
39103;DHT22;24847;48.218;16.414;2023-01-28T08:29:18;-0.80;99.90
39103;DHT22;24847;48.218;16.414;2023-01-28T08:34:20;-0.80;99.90
39103;DHT22;24847;48.218;16.414;2023-01-28T08:39:25;-0.90;99.90
39103;DHT22;24847;48.218;16.414;2023-01-28T08:44:27;-0.80;99.90
39103;DHT22;24847;48.218;16.414;2023-01-28T08:49:29;-0.70;99.90
39103;DHT22;24847;48.218;16.414;2023-01-28T08:54:33;-0.70;99.90
39103;DHT22;24847;48.218;16.414;2023-01-28T08:59:36;-0.60;99.90
39103;DHT22;24847;48.218;16.414;2023-01-28T09:04:44;-0.60;99.90
39103;DHT22;24847;48.218;16.414;2023-01-28T09:09:48;-0.60;99.90
39103;DHT22;24847;48.218;16.414;2023-01-28T09:14:50;-0.60;99.90
39103;DHT22;24847;48.218;16.414;2023-01-28T09:19:53;-0.60;99.90
39103;DHT22;24847;48.218;16.414;2023-01-28T09:24:57;-0.60;99.90
39103;DHT22;24847;48.218;16.414;2023-01-28T09:29:59;-0.50;99.90
39103;DHT22;24847;48.218;16.414;2023-01-28T09:35:02;-0.50;99.90
39103;DHT22;24847;48.218;16.414;2023-01-28T09:40:08;-0.40;99.90
39103;DHT22;24847;48.218;16.414;2023-01-28T09:45:16;-0.40;99.90
39103;DHT22;24847;48.218;16.414;2023-01-28T09:50:29;-0.30;99.90
39103;DHT22;24847;48.218;16.414;2023-01-28T09:55:37;-0.30;99.90
39103;DHT22;24847;48.218;16.414;2023-01-28T10:00:48;-0.40;99.90
39103;DHT22;24847;48.218;16.414;2023-01-28T10:06:03;-0.50;99.90
39103;DHT22;24847;48.218;16.414;2023-01-28T10:11:22;-0.50;99.90
39103;DHT22;24847;48.218;16.414;2023-01-28T10:16:33;-0.40;99.90
39103;DHT22;24847;48.218;16.414;2023-01-28T10:21:40;-0.40;99.90
39103;DHT22;24847;48.218;16.414;2023-01-28T10:26:51;-0.40;99.90
39103;DHT22;24847;48.218;16.414;2023-01-28T10:31:56;-0.40;99.90
39103;DHT22;24847;48.218;16.414;2023-01-28T10:37:00;-0.50;99.90
39103;DHT22;24847;48.218;16.414;2023-01-28T10:42:14;-0.40;99.90
39103;DHT22;24847;48.218;16.414;2023-01-28T10:47:26;-0.40;99.90
39103;DHT22;24847;48.218;16.414;2023-01-28T10:52:31;-0.50;99.90
39103;DHT22;24847;48.218;16.414;2023-01-28T10:57:40;-0.50;99.90
39103;DHT22;24847;48.218;16.414;2023-01-28T11:02:43;-0.50;99.90
39103;DHT22;24847;48.218;16.414;2023-01-28T11:07:49;-0.50;99.90
39103;DHT22;24847;48.218;16.414;2023-01-28T11:12:55;-0.70;99.90
39103;DHT22;24847;48.218;16.414;2023-01-28T11:18:01;-0.60;99.90
39103;DHT22;24847;48.218;16.414;2023-01-28T11:23:06;-0.60;99.90
39103;DHT22;24847;48.218;16.414;2023-01-28T11:28:17;-0.50;99.90
39103;DHT22;24847;48.218;16.414;2023-01-28T11:33:23;-0.50;99.90
39103;DHT22;24847;48.218;16.414;2023-01-28T11:38:28;-0.50;99.90
39103;DHT22;24847;48.218;16.414;2023-01-28T11:43:32;-0.40;99.90
39103;DHT22;24847;48.218;16.414;2023-01-28T11:48:42;-0.50;99.90
39103;DHT22;24847;48.218;16.414;2023-01-28T11:54:00;-0.50;99.90
39103;DHT22;24847;48.218;16.414;2023-01-28T11:59:32;-0.40;99.90
39103;DHT22;24847;48.218;16.414;2023-01-28T12:05:07;-0.40;99.90
39103;DHT22;24847;48.218;16.414;2023-01-28T12:10:23;-0.30;99.90
39103;DHT22;24847;48.218;16.414;2023-01-28T12:15:58;-0.30;99.90
39103;DHT22;24847;48.218;16.414;2023-01-28T12:21:11;-0.30;99.90
39103;DHT22;24847;48.218;16.414;2023-01-28T12:26:22;-0.40;99.90
39103;DHT22;24847;48.218;16.414;2023-01-28T12:31:54;-0.30;99.90
39103;DHT22;24847;48.218;16.414;2023-01-28T12:37:09;-0.20;99.90
39103;DHT22;24847;48.218;16.414;2023-01-28T12:42:21;-0.10;99.90
39103;DHT22;24847;48.218;16.414;2023-01-28T12:47:33;-0.10;99.90
39103;DHT22;24847;48.218;16.414;2023-01-28T12:52:39;-0.10;99.90
39103;DHT22;24847;48.218;16.414;2023-01-28T12:57:46;-0.10;99.90
39103;DHT22;24847;48.218;16.414;2023-01-28T13:02:55;-0.10;99.90
39103;DHT22;24847;48.218;16.414;2023-01-28T13:08:03;-0.20;99.90
39103;DHT22;24847;48.218;16.414;2023-01-28T13:13:16;-0.30;99.90
39103;DHT22;24847;48.218;16.414;2023-01-28T13:18:33;-0.20;99.90
39103;DHT22;24847;48.218;16.414;2023-01-28T13:23:38;-0.20;99.90
39103;DHT22;24847;48.218;16.414;2023-01-28T13:28:45;-0.20;99.90
39103;DHT22;24847;48.218;16.414;2023-01-28T13:34:01;-0.20;99.90
39103;DHT22;24847;48.218;16.414;2023-01-28T13:39:13;-0.10;99.90
39103;DHT22;24847;48.218;16.414;2023-01-28T13:44:18;-0.20;99.90
39103;DHT22;24847;48.218;16.414;2023-01-28T13:49:27;-0.10;99.90
39103;DHT22;24847;48.218;16.414;2023-01-28T13:54:35;-0.10;99.90
39103;DHT22;24847;48.218;16.414;2023-01-28T13:59:47;0.00;99.90
39103;DHT22;24847;48.218;16.414;2023-01-28T14:10:48;0.10;99.90
39103;DHT22;24847;48.218;16.414;2023-01-28T14:16:10;0.10;99.90
39103;DHT22;24847;48.218;16.414;2023-01-28T14:21:26;0.10;99.90
39103;DHT22;24847;48.218;16.414;2023-01-28T14:26:37;0.00;99.90
39103;DHT22;24847;48.218;16.414;2023-01-28T14:31:43;0.00;99.90
39103;DHT22;24847;48.218;16.414;2023-01-28T14:36:50;0.00;99.90
39103;DHT22;24847;48.218;16.414;2023-01-28T14:42:00;0.00;99.90
39103;DHT22;24847;48.218;16.414;2023-01-28T14:47:21;0.00;99.90
39103;DHT22;24847;48.218;16.414;2023-01-28T14:52:52;0.00;99.90
39103;DHT22;24847;48.218;16.414;2023-01-28T14:58:02;0.10;99.90
39103;DHT22;24847;48.218;16.414;2023-01-28T15:03:16;0.00;99.90
39103;DHT22;24847;48.218;16.414;2023-01-28T15:08:22;0.00;99.90
39103;DHT22;24847;48.218;16.414;2023-01-28T15:13:34;0.00;99.90
39103;DHT22;24847;48.218;16.414;2023-01-28T15:18:41;0.00;99.90
39103;DHT22;24847;48.218;16.414;2023-01-28T15:23:48;0.10;99.90
39103;DHT22;24847;48.218;16.414;2023-01-28T15:28:54;0.10;99.90
39103;DHT22;24847;48.218;16.414;2023-01-28T15:34:00;-0.10;99.90
39103;DHT22;24847;48.218;16.414;2023-01-28T15:39:13;0.00;99.90
39103;DHT22;24847;48.218;16.414;2023-01-28T15:44:17;-0.10;99.90
39103;DHT22;24847;48.218;16.414;2023-01-28T15:49:22;-0.10;99.90
39103;DHT22;24847;48.218;16.414;2023-01-28T15:54:30;-0.10;99.90
39103;DHT22;24847;48.218;16.414;2023-01-28T15:59:33;-0.10;99.90
39103;DHT22;24847;48.218;16.414;2023-01-28T16:04:38;-0.10;99.90
39103;DHT22;24847;48.218;16.414;2023-01-28T16:09:42;-0.10;99.90
39103;DHT22;24847;48.218;16.414;2023-01-28T16:14:48;-0.10;99.90
39103;DHT22;24847;48.218;16.414;2023-01-28T16:19:56;0.00;99.90
39103;DHT22;24847;48.218;16.414;2023-01-28T16:25:01;0.00;99.90
39103;DHT22;24847;48.218;16.414;2023-01-28T16:30:05;-0.10;99.90
39103;DHT22;24847;48.218;16.414;2023-01-28T16:35:12;0.00;99.90
39103;DHT22;24847;48.218;16.414;2023-01-28T16:40:20;-0.10;99.90
39103;DHT22;24847;48.218;16.414;2023-01-28T16:45:25;0.00;99.90
39103;DHT22;24847;48.218;16.414;2023-01-28T16:50:30;0.00;99.90
39103;DHT22;24847;48.218;16.414;2023-01-28T16:55:36;0.00;99.90
39103;DHT22;24847;48.218;16.414;2023-01-28T17:00:39;0.00;99.90
39103;DHT22;24847;48.218;16.414;2023-01-28T17:05:41;0.00;99.90
39103;DHT22;24847;48.218;16.414;2023-01-28T17:10:53;-0.10;99.90
39103;DHT22;24847;48.218;16.414;2023-01-28T17:16:01;0.00;99.90
39103;DHT22;24847;48.218;16.414;2023-01-28T17:21:05;0.10;99.90
39103;DHT22;24847;48.218;16.414;2023-01-28T17:26:11;0.20;99.90
39103;DHT22;24847;48.218;16.414;2023-01-28T17:31:14;0.20;99.90
39103;DHT22;24847;48.218;16.414;2023-01-28T17:36:17;0.20;99.90
39103;DHT22;24847;48.218;16.414;2023-01-28T17:41:21;0.10;99.90
39103;DHT22;24847;48.218;16.414;2023-01-28T17:46:25;0.20;99.90
39103;DHT22;24847;48.218;16.414;2023-01-28T17:51:28;0.20;99.90
39103;DHT22;24847;48.218;16.414;2023-01-28T17:56:32;0.10;99.90
39103;DHT22;24847;48.218;16.414;2023-01-28T18:01:35;0.10;99.90
39103;DHT22;24847;48.218;16.414;2023-01-28T18:06:39;0.00;99.90
39103;DHT22;24847;48.218;16.414;2023-01-28T18:11:43;0.20;99.90
39103;DHT22;24847;48.218;16.414;2023-01-28T18:16:46;0.20;99.90
39103;DHT22;24847;48.218;16.414;2023-01-28T18:21:49;0.20;99.90
39103;DHT22;24847;48.218;16.414;2023-01-28T18:26:54;0.20;99.90
39103;DHT22;24847;48.218;16.414;2023-01-28T18:31:59;0.10;99.90
39103;DHT22;24847;48.218;16.414;2023-01-28T18:37:05;0.10;99.90
39103;DHT22;24847;48.218;16.414;2023-01-28T18:42:10;0.10;99.90
39103;DHT22;24847;48.218;16.414;2023-01-28T18:47:13;0.10;99.90
39103;DHT22;24847;48.218;16.414;2023-01-28T18:52:17;0.00;99.90
39103;DHT22;24847;48.218;16.414;2023-01-28T18:57:21;0.00;99.90
39103;DHT22;24847;48.218;16.414;2023-01-28T19:02:24;0.00;99.90
39103;DHT22;24847;48.218;16.414;2023-01-28T19:07:29;0.00;99.90
39103;DHT22;24847;48.218;16.414;2023-01-28T19:12:34;0.10;99.90
39103;DHT22;24847;48.218;16.414;2023-01-28T19:17:42;0.00;99.90
39103;DHT22;24847;48.218;16.414;2023-01-28T19:22:45;0.10;99.90
39103;DHT22;24847;48.218;16.414;2023-01-28T19:27:52;0.10;99.90
39103;DHT22;24847;48.218;16.414;2023-01-28T19:32:55;0.10;99.90
39103;DHT22;24847;48.218;16.414;2023-01-28T19:37:59;0.10;99.90
39103;DHT22;24847;48.218;16.414;2023-01-28T19:43:09;0.10;99.90
39103;DHT22;24847;48.218;16.414;2023-01-28T19:48:13;0.10;99.90
39103;DHT22;24847;48.218;16.414;2023-01-28T19:53:18;0.00;99.90
39103;DHT22;24847;48.218;16.414;2023-01-28T19:58:23;0.00;99.90
39103;DHT22;24847;48.218;16.414;2023-01-28T20:03:30;0.00;99.90
39103;DHT22;24847;48.218;16.414;2023-01-28T20:08:33;0.00;99.90
39103;DHT22;24847;48.218;16.414;2023-01-28T20:13:39;0.00;99.90
39103;DHT22;24847;48.218;16.414;2023-01-28T20:18:47;0.00;99.90
39103;DHT22;24847;48.218;16.414;2023-01-28T20:23:52;0.10;99.90
39103;DHT22;24847;48.218;16.414;2023-01-28T20:28:59;0.10;99.90
39103;DHT22;24847;48.218;16.414;2023-01-28T20:34:03;0.10;99.90
39103;DHT22;24847;48.218;16.414;2023-01-28T20:39:07;0.10;99.90
39103;DHT22;24847;48.218;16.414;2023-01-28T20:44:13;0.10;99.90
39103;DHT22;24847;48.218;16.414;2023-01-28T20:49:15;0.10;99.90
39103;DHT22;24847;48.218;16.414;2023-01-28T20:54:18;0.10;99.90
39103;DHT22;24847;48.218;16.414;2023-01-28T20:59:24;0.10;99.90
39103;DHT22;24847;48.218;16.414;2023-01-28T21:04:28;0.10;99.90
39103;DHT22;24847;48.218;16.414;2023-01-28T21:09:32;0.10;99.90
39103;DHT22;24847;48.218;16.414;2023-01-28T21:14:36;0.10;99.90
39103;DHT22;24847;48.218;16.414;2023-01-28T21:19:39;0.10;99.90
39103;DHT22;24847;48.218;16.414;2023-01-28T21:24:41;0.10;99.90
39103;DHT22;24847;48.218;16.414;2023-01-28T21:29:47;0.10;99.90
39103;DHT22;24847;48.218;16.414;2023-01-28T21:34:51;0.20;99.90
39103;DHT22;24847;48.218;16.414;2023-01-28T21:39:53;0.10;99.90
39103;DHT22;24847;48.218;16.414;2023-01-28T21:44:57;0.20;99.90
39103;DHT22;24847;48.218;16.414;2023-01-28T21:50:00;0.10;99.90
39103;DHT22;24847;48.218;16.414;2023-01-28T21:55:03;0.10;99.90
39103;DHT22;24847;48.218;16.414;2023-01-28T22:00:09;0.10;99.90
39103;DHT22;24847;48.218;16.414;2023-01-28T22:05:12;0.00;99.90
39103;DHT22;24847;48.218;16.414;2023-01-28T22:10:15;0.00;99.90
39103;DHT22;24847;48.218;16.414;2023-01-28T22:15:19;0.00;99.90
39103;DHT22;24847;48.218;16.414;2023-01-28T22:20:21;0.10;99.90
39103;DHT22;24847;48.218;16.414;2023-01-28T22:25:24;0.00;99.90
39103;DHT22;24847;48.218;16.414;2023-01-28T22:30:27;0.10;99.90
39103;DHT22;24847;48.218;16.414;2023-01-28T22:35:30;0.00;99.90
39103;DHT22;24847;48.218;16.414;2023-01-28T22:40:33;0.00;99.90
39103;DHT22;24847;48.218;16.414;2023-01-28T22:45:37;-0.10;99.90
39103;DHT22;24847;48.218;16.414;2023-01-28T22:50:39;-0.10;99.90
39103;DHT22;24847;48.218;16.414;2023-01-28T22:55:43;0.00;99.90
39103;DHT22;24847;48.218;16.414;2023-01-28T23:00:47;-0.10;99.90
39103;DHT22;24847;48.218;16.414;2023-01-28T23:05:49;-0.10;99.90
39103;DHT22;24847;48.218;16.414;2023-01-28T23:10:52;-0.10;99.90
39103;DHT22;24847;48.218;16.414;2023-01-28T23:15:58;0.10;99.90
39103;DHT22;24847;48.218;16.414;2023-01-28T23:21:20;-0.10;99.90
39103;DHT22;24847;48.218;16.414;2023-01-28T23:26:41;-0.10;99.90
39103;DHT22;24847;48.218;16.414;2023-01-28T23:31:45;-0.10;99.90
39103;DHT22;24847;48.218;16.414;2023-01-28T23:36:48;-0.10;99.90
39103;DHT22;24847;48.218;16.414;2023-01-28T23:41:51;-0.20;99.90
39103;DHT22;24847;48.218;16.414;2023-01-28T23:46:55;-0.10;99.90
39103;DHT22;24847;48.218;16.414;2023-01-28T23:51:57;-0.10;99.90
39103;DHT22;24847;48.218;16.414;2023-01-28T23:57:00;-0.10;99.90
